Main page
METAR-TAF:

METAR-TAF

Airports :

In Amenas Airport

In Aménas, Algeria

latitude: 28-03N, longitude: 009-38E, elevation: 562 m

Current weather observation

The report was made 46 minutes ago, at 22:00 UTC
Wind 4 kt from the North/Northwest
Temperature 29°C
Pressure 1016 hPa
Visibility 10 km or more
no clouds below 1500 m and no cumulonimbus

METAR: DAUZ 252200Z 34004KT CAVOK 29/// Q1016

Time: 23:46 (22:46 UTC)

Forecast

The report was made 5 hours and 46 minutes ago, at 17:00 UTC
Forecast valid from 25 at 18 UTC to 26 at 18 UTC
Wind 8 kt from the North/Northwest
Visibility 10 km or more
no clouds below 1500 m and no cumulonimbus

TAF: DAUZ 251700Z 2518/2618 34008KT CAVOK

Weather observations and forecasts of more than 4000 airports (METAR and TAF reports).

The available stations are represented by yellow and red dots on the map.

Hover mouse over dot to see the name of the station.

Then click to see weather observations and forecasts.

To change the map : click on the green buttons with a black cross to zoom in, on the green button with a dash to zoom out, or on the green arrows for adjacent maps.


METAR-TAF: